JMP500 EDFM-EDNY
Flight info
| Callsign | JMP500 |
|---|---|
| Flight time | 0h 53m |
| Altitude | 8000 |
| Route | RINEX3W RINEX DCT LUGUS/N0177F070 DCT ARFAS |
| Aircraft | C208/L-SDFGR/C |
Departure
| Time | 2026-04-23 15:37 |
|---|---|
| Airport | Mannheim-City Airport (EDFM) |
Arrival
| Time | 2026-04-23 16:31 |
|---|---|
| Airport | Bodensee Airport Friedrichshafen (EDNY) |
| Time | Latitude | Longitude | Altitude | Speed | Heading |
|---|---|---|---|---|---|
| 2026-04-23 15:16 | 49.47562 | 8.52057 | 324 ft | 0 kts | 182° |
| 2026-04-23 15:34 | 49.47551 | 8.52062 | 317 ft | 7 kts | 135° |
| 2026-04-23 15:34 | 49.47536 | 8.52158 | 317 ft | 6 kts | 105° |
| 2026-04-23 15:34 | 49.47487 | 8.52167 | 317 ft | 12 kts | 184° |
| 2026-04-23 15:35 | 49.47408 | 8.52160 | 317 ft | 10 kts | 182° |
| 2026-04-23 15:35 | 49.47362 | 8.52156 | 317 ft | 8 kts | 182° |
| 2026-04-23 15:35 | 49.47286 | 8.52150 | 317 ft | 10 kts | 183° |
| 2026-04-23 15:35 | 49.47246 | 8.52125 | 317 ft | 2 kts | 266° |
| 2026-04-23 15:36 | 49.47246 | 8.52123 | 317 ft | 0 kts | 273° |
| 2026-04-23 15:36 | 49.47252 | 8.52015 | 318 ft | 35 kts | 274° |
| 2026-04-23 15:37 | 49.47273 | 8.51302 | 362 ft | 89 kts | 275° |
| 2026-04-23 15:37 | 49.47283 | 8.50287 | 666 ft | 100 kts | 271° |
| 2026-04-23 15:37 | 49.47197 | 8.49182 | 992 ft | 111 kts | 259° |
| 2026-04-23 15:37 | 49.47016 | 8.47901 | 1244 ft | 132 kts | 261° |
| 2026-04-23 15:38 | 49.46810 | 8.46453 | 1516 ft | 143 kts | 262° |
| 2026-04-23 15:38 | 49.46587 | 8.44926 | 1843 ft | 149 kts | 259° |
| 2026-04-23 15:38 | 49.46345 | 8.43347 | 2150 ft | 154 kts | 261° |
| 2026-04-23 15:38 | 49.46101 | 8.41729 | 2469 ft | 155 kts | 261° |
| 2026-04-23 15:39 | 49.45822 | 8.40133 | 2766 ft | 156 kts | 251° |
| 2026-04-23 15:39 | 49.45129 | 8.38836 | 3068 ft | 161 kts | 219° |
| 2026-04-23 15:39 | 49.44092 | 8.38152 | 3372 ft | 164 kts | 197° |
| 2026-04-23 15:39 | 49.42991 | 8.37666 | 3671 ft | 165 kts | 198° |
| 2026-04-23 15:40 | 49.41891 | 8.37153 | 3972 ft | 165 kts | 197° |
| 2026-04-23 15:40 | 49.40794 | 8.36642 | 4274 ft | 165 kts | 198° |
| 2026-04-23 15:40 | 49.39979 | 8.36264 | 8329 ft | 121 kts | 197° |
| 2026-04-23 15:40 | 49.39202 | 8.35913 | 8298 ft | 113 kts | 195° |
| 2026-04-23 15:41 | 49.38467 | 8.35599 | 8264 ft | 106 kts | 196° |
| 2026-04-23 15:41 | 49.37775 | 8.35268 | 8300 ft | 112 kts | 196° |
| 2026-04-23 15:41 | 49.36925 | 8.34861 | 8453 ft | 141 kts | 197° |
| 2026-04-23 15:41 | 49.35897 | 8.34721 | 8586 ft | 162 kts | 163° |
| 2026-04-23 15:42 | 49.34924 | 8.35751 | 8546 ft | 182 kts | 128° |
| 2026-04-23 15:42 | 49.34080 | 8.37299 | 8484 ft | 196 kts | 127° |
| 2026-04-23 15:42 | 49.33148 | 8.38892 | 8391 ft | 205 kts | 130° |
| 2026-04-23 15:42 | 49.32621 | 8.39689 | 9000 ft | 113 kts | 130° |
| 2026-04-23 15:43 | 49.32205 | 8.40310 | 8914 ft | 111 kts | 130° |
| 2026-04-23 15:43 | 49.31979 | 8.40656 | 8896 ft | 121 kts | 129° |
| 2026-04-23 15:43 | 49.31339 | 8.41738 | 8946 ft | 150 kts | 118° |
| 2026-04-23 15:43 | 49.31149 | 8.43365 | 8938 ft | 167 kts | 78° |
| 2026-04-23 15:44 | 49.31391 | 8.45186 | 8945 ft | 180 kts | 75° |
| 2026-04-23 15:44 | 49.31620 | 8.47128 | 8921 ft | 190 kts | 78° |
| 2026-04-23 15:44 | 49.31785 | 8.49070 | 9529 ft | 105 kts | 80° |
| 2026-04-23 15:44 | 49.31866 | 8.50338 | 9501 ft | 136 kts | 79° |
| 2026-04-23 15:45 | 49.31991 | 8.51957 | 9355 ft | 166 kts | 79° |
| 2026-04-23 15:45 | 49.32140 | 8.53791 | 9213 ft | 178 kts | 79° |
| 2026-04-23 15:45 | 49.32297 | 8.55697 | 9059 ft | 180 kts | 79° |
| 2026-04-23 15:45 | 49.32444 | 8.57559 | 8885 ft | 173 kts | 80° |
| 2026-04-23 15:46 | 49.32464 | 8.59377 | 8697 ft | 173 kts | 97° |
| 2026-04-23 15:46 | 49.31968 | 8.61059 | 8510 ft | 176 kts | 123° |
| 2026-04-23 15:46 | 49.31025 | 8.62265 | 8322 ft | 180 kts | 150° |
| 2026-04-23 15:46 | 49.29826 | 8.62699 | 8285 ft | 176 kts | 178° |
| 2026-04-23 15:47 | 49.28646 | 8.62441 | 8283 ft | 172 kts | 190° |
| 2026-04-23 15:47 | 49.27481 | 8.62125 | 8280 ft | 174 kts | 189° |
| 2026-04-23 15:47 | 49.26253 | 8.61802 | 8286 ft | 180 kts | 189° |
| 2026-04-23 15:47 | 49.25007 | 8.61474 | 8294 ft | 183 kts | 189° |
| 2026-04-23 15:48 | 49.23745 | 8.61143 | 8294 ft | 184 kts | 189° |
| 2026-04-23 15:48 | 49.22476 | 8.60809 | 8294 ft | 185 kts | 189° |
| 2026-04-23 15:48 | 49.21206 | 8.60477 | 8292 ft | 185 kts | 189° |
| 2026-04-23 15:48 | 49.19936 | 8.60144 | 8293 ft | 185 kts | 189° |
| 2026-04-23 15:49 | 49.18668 | 8.59812 | 8294 ft | 185 kts | 188° |
| 2026-04-23 15:49 | 49.17402 | 8.59480 | 8293 ft | 184 kts | 188° |
| 2026-04-23 15:49 | 49.16140 | 8.59150 | 8294 ft | 184 kts | 188° |
| 2026-04-23 15:49 | 49.14875 | 8.58818 | 8295 ft | 185 kts | 188° |
| 2026-04-23 15:50 | 49.13606 | 8.58487 | 8289 ft | 185 kts | 188° |
| 2026-04-23 15:50 | 49.12334 | 8.58155 | 8289 ft | 185 kts | 188° |
| 2026-04-23 15:50 | 49.11065 | 8.57822 | 8293 ft | 185 kts | 188° |
| 2026-04-23 15:50 | 49.09794 | 8.57491 | 8294 ft | 185 kts | 188° |
| 2026-04-23 15:51 | 49.08521 | 8.57160 | 8295 ft | 185 kts | 188° |
| 2026-04-23 15:51 | 49.07253 | 8.56828 | 8294 ft | 185 kts | 188° |
| 2026-04-23 15:51 | 49.05985 | 8.56498 | 8296 ft | 185 kts | 188° |
| 2026-04-23 15:51 | 49.04716 | 8.56168 | 8297 ft | 185 kts | 188° |
| 2026-04-23 15:52 | 49.03444 | 8.55836 | 8292 ft | 186 kts | 188° |
| 2026-04-23 15:52 | 49.02171 | 8.55505 | 8294 ft | 186 kts | 188° |
| 2026-04-23 15:52 | 49.00920 | 8.55179 | 8294 ft | 185 kts | 188° |
| 2026-04-23 15:52 | 48.99631 | 8.54844 | 8294 ft | 185 kts | 188° |
| 2026-04-23 15:53 | 48.98364 | 8.54516 | 8295 ft | 184 kts | 188° |
| 2026-04-23 15:53 | 48.97116 | 8.54190 | 8293 ft | 185 kts | 188° |
| 2026-04-23 15:53 | 48.95849 | 8.53862 | 8294 ft | 184 kts | 188° |
| 2026-04-23 15:53 | 48.94587 | 8.53533 | 8291 ft | 183 kts | 188° |
| 2026-04-23 15:54 | 48.93329 | 8.53206 | 8295 ft | 184 kts | 187° |
| 2026-04-23 15:54 | 48.92062 | 8.52879 | 8290 ft | 184 kts | 188° |
| 2026-04-23 15:54 | 48.90800 | 8.52553 | 8293 ft | 184 kts | 188° |
| 2026-04-23 15:54 | 48.89539 | 8.52223 | 8292 ft | 184 kts | 187° |
| 2026-04-23 15:55 | 48.88275 | 8.51898 | 8286 ft | 184 kts | 187° |
| 2026-04-23 15:55 | 48.87010 | 8.51572 | 8289 ft | 184 kts | 188° |
| 2026-04-23 15:55 | 48.85745 | 8.51244 | 8287 ft | 184 kts | 188° |
| 2026-04-23 15:55 | 48.84485 | 8.50919 | 8288 ft | 184 kts | 188° |
| 2026-04-23 15:56 | 48.83220 | 8.50592 | 8287 ft | 185 kts | 188° |
| 2026-04-23 15:56 | 48.81958 | 8.50266 | 8287 ft | 183 kts | 188° |
| 2026-04-23 15:56 | 48.80697 | 8.49940 | 8288 ft | 184 kts | 188° |
| 2026-04-23 15:56 | 48.79433 | 8.49615 | 8289 ft | 184 kts | 188° |
| 2026-04-23 15:57 | 48.78170 | 8.49292 | 8290 ft | 184 kts | 188° |
| 2026-04-23 15:57 | 48.76909 | 8.48964 | 8291 ft | 183 kts | 188° |
| 2026-04-23 15:57 | 48.75657 | 8.48640 | 8286 ft | 183 kts | 187° |
| 2026-04-23 15:57 | 48.74405 | 8.48321 | 8284 ft | 182 kts | 187° |
| 2026-04-23 15:58 | 48.73157 | 8.47999 | 8279 ft | 182 kts | 187° |
| 2026-04-23 15:58 | 48.71911 | 8.47677 | 8280 ft | 181 kts | 187° |
| 2026-04-23 15:58 | 48.70671 | 8.47358 | 8281 ft | 181 kts | 187° |
| 2026-04-23 15:58 | 48.69433 | 8.47041 | 8273 ft | 179 kts | 187° |
| 2026-04-23 15:59 | 48.68199 | 8.46723 | 8278 ft | 181 kts | 187° |
| 2026-04-23 15:59 | 48.66951 | 8.46404 | 8275 ft | 182 kts | 187° |
| 2026-04-23 15:59 | 48.65695 | 8.46082 | 8278 ft | 183 kts | 187° |
| 2026-04-23 15:59 | 48.64459 | 8.45765 | 8279 ft | 183 kts | 187° |
| 2026-04-23 16:00 | 48.63204 | 8.45443 | 8280 ft | 183 kts | 187° |
| 2026-04-23 16:00 | 48.61948 | 8.45123 | 8282 ft | 183 kts | 187° |
| 2026-04-23 16:00 | 48.60692 | 8.44801 | 8282 ft | 183 kts | 188° |
| 2026-04-23 16:00 | 48.59439 | 8.44478 | 8280 ft | 184 kts | 187° |
| 2026-04-23 16:01 | 48.58179 | 8.44155 | 8279 ft | 183 kts | 187° |
| 2026-04-23 16:01 | 48.56920 | 8.43839 | 8281 ft | 183 kts | 188° |
| 2026-04-23 16:01 | 48.55669 | 8.43518 | 8284 ft | 182 kts | 187° |
| 2026-04-23 16:01 | 48.54416 | 8.43197 | 8283 ft | 183 kts | 187° |
| 2026-04-23 16:02 | 48.53165 | 8.42878 | 8282 ft | 182 kts | 188° |
| 2026-04-23 16:02 | 48.51923 | 8.42560 | 8279 ft | 181 kts | 188° |
| 2026-04-23 16:02 | 48.50688 | 8.42246 | 8276 ft | 179 kts | 188° |
| 2026-04-23 16:02 | 48.49457 | 8.41929 | 8276 ft | 180 kts | 187° |
| 2026-04-23 16:03 | 48.48213 | 8.41614 | 8278 ft | 182 kts | 187° |
| 2026-04-23 16:03 | 48.46981 | 8.41303 | 8282 ft | 182 kts | 187° |
| 2026-04-23 16:03 | 48.45729 | 8.40984 | 8285 ft | 183 kts | 187° |
| 2026-04-23 16:03 | 48.44470 | 8.40662 | 8282 ft | 183 kts | 187° |
| 2026-04-23 16:04 | 48.43213 | 8.40389 | 8276 ft | 182 kts | 179° |
| 2026-04-23 16:04 | 48.42000 | 8.40766 | 8271 ft | 177 kts | 152° |
| 2026-04-23 16:04 | 48.41009 | 8.41797 | 8271 ft | 172 kts | 131° |
| 2026-04-23 16:04 | 48.40168 | 8.43077 | 8272 ft | 172 kts | 132° |
| 2026-04-23 16:05 | 48.39588 | 8.43929 | 8276 ft | 173 kts | 131° |
| 2026-04-23 16:05 | 48.38451 | 8.45605 | 8277 ft | 173 kts | 132° |
| 2026-04-23 16:05 | 48.37593 | 8.46876 | 8278 ft | 173 kts | 132° |
| 2026-04-23 16:05 | 48.36731 | 8.48150 | 8278 ft | 174 kts | 131° |
| 2026-04-23 16:06 | 48.35871 | 8.49421 | 8280 ft | 173 kts | 131° |
| 2026-04-23 16:06 | 48.35013 | 8.50689 | 8281 ft | 173 kts | 131° |
| 2026-04-23 16:06 | 48.34154 | 8.51960 | 8279 ft | 173 kts | 131° |
| 2026-04-23 16:06 | 48.33296 | 8.53222 | 8279 ft | 172 kts | 132° |
| 2026-04-23 16:07 | 48.32441 | 8.54483 | 8278 ft | 172 kts | 131° |
| 2026-04-23 16:07 | 48.31585 | 8.55748 | 8278 ft | 173 kts | 132° |
| 2026-04-23 16:07 | 48.30727 | 8.57011 | 8279 ft | 173 kts | 132° |
| 2026-04-23 16:07 | 48.29865 | 8.58284 | 8278 ft | 174 kts | 131° |
| 2026-04-23 16:08 | 48.29003 | 8.59553 | 8286 ft | 174 kts | 132° |
| 2026-04-23 16:08 | 48.28151 | 8.60803 | 8286 ft | 174 kts | 132° |
| 2026-04-23 16:08 | 48.27289 | 8.62071 | 8286 ft | 174 kts | 132° |
| 2026-04-23 16:08 | 48.26425 | 8.63341 | 8287 ft | 174 kts | 132° |
| 2026-04-23 16:09 | 48.25560 | 8.64614 | 8288 ft | 174 kts | 132° |
| 2026-04-23 16:09 | 48.24685 | 8.65900 | 8291 ft | 178 kts | 132° |
| 2026-04-23 16:09 | 48.23793 | 8.67211 | 8288 ft | 181 kts | 131° |
| 2026-04-23 16:09 | 48.22911 | 8.68504 | 8286 ft | 182 kts | 132° |
| 2026-04-23 16:10 | 48.21988 | 8.69856 | 8290 ft | 182 kts | 131° |
| 2026-04-23 16:10 | 48.21081 | 8.71191 | 8289 ft | 183 kts | 132° |
| 2026-04-23 16:10 | 48.20174 | 8.72518 | 8288 ft | 182 kts | 131° |
| 2026-04-23 16:10 | 48.19270 | 8.73841 | 8290 ft | 181 kts | 132° |
| 2026-04-23 16:11 | 48.18364 | 8.75165 | 8288 ft | 182 kts | 133° |
| 2026-04-23 16:11 | 48.17459 | 8.76490 | 8284 ft | 181 kts | 133° |
| 2026-04-23 16:11 | 48.16556 | 8.77809 | 8284 ft | 181 kts | 132° |
| 2026-04-23 16:11 | 48.15652 | 8.79127 | 8284 ft | 182 kts | 132° |
| 2026-04-23 16:12 | 48.14750 | 8.80441 | 8274 ft | 180 kts | 133° |
| 2026-04-23 16:12 | 48.13858 | 8.81738 | 8276 ft | 179 kts | 131° |
| 2026-04-23 16:12 | 48.12963 | 8.83056 | 8279 ft | 181 kts | 132° |
| 2026-04-23 16:12 | 48.12069 | 8.84360 | 8278 ft | 182 kts | 132° |
| 2026-04-23 16:13 | 48.11458 | 8.85250 | 8283 ft | 181 kts | 132° |
| 2026-04-23 16:13 | 48.09349 | 8.88321 | 8284 ft | 182 kts | 133° |
| 2026-04-23 16:13 | 48.08444 | 8.89635 | 8286 ft | 181 kts | 133° |
| 2026-04-23 16:14 | 48.07541 | 8.90947 | 8284 ft | 181 kts | 133° |
| 2026-04-23 16:14 | 48.06641 | 8.92255 | 8283 ft | 180 kts | 132° |
| 2026-04-23 16:14 | 48.06045 | 8.93119 | 8281 ft | 180 kts | 132° |
| 2026-04-23 16:14 | 48.05149 | 8.94412 | 8282 ft | 179 kts | 133° |
| 2026-04-23 16:15 | 48.04257 | 8.95716 | 8284 ft | 179 kts | 132° |
| 2026-04-23 16:15 | 48.03364 | 8.97021 | 8286 ft | 181 kts | 132° |
| 2026-04-23 16:15 | 48.02459 | 8.98330 | 8283 ft | 181 kts | 132° |
| 2026-04-23 16:15 | 48.01553 | 8.99639 | 8282 ft | 181 kts | 133° |
| 2026-04-23 16:16 | 48.00647 | 9.00949 | 8283 ft | 182 kts | 132° |
| 2026-04-23 16:16 | 47.99740 | 9.02264 | 8280 ft | 181 kts | 133° |
| 2026-04-23 16:16 | 47.98833 | 9.03577 | 8282 ft | 182 kts | 133° |
| 2026-04-23 16:16 | 47.97924 | 9.04890 | 8284 ft | 182 kts | 133° |
| 2026-04-23 16:17 | 47.97016 | 9.06205 | 8282 ft | 182 kts | 133° |
| 2026-04-23 16:17 | 47.96108 | 9.07513 | 8282 ft | 182 kts | 132° |
| 2026-04-23 16:17 | 47.95197 | 9.08833 | 8282 ft | 182 kts | 133° |
| 2026-04-23 16:17 | 47.94285 | 9.10144 | 8279 ft | 182 kts | 132° |
| 2026-04-23 16:18 | 47.93374 | 9.11460 | 8280 ft | 182 kts | 133° |
| 2026-04-23 16:18 | 47.92463 | 9.12774 | 8281 ft | 183 kts | 132° |
| 2026-04-23 16:18 | 47.91552 | 9.14089 | 8280 ft | 182 kts | 133° |
| 2026-04-23 16:18 | 47.90638 | 9.15401 | 8280 ft | 182 kts | 132° |
| 2026-04-23 16:19 | 47.89727 | 9.16713 | 8282 ft | 183 kts | 133° |
| 2026-04-23 16:19 | 47.88811 | 9.18035 | 8218 ft | 181 kts | 133° |
| 2026-04-23 16:19 | 47.87957 | 9.19258 | 8099 ft | 161 kts | 133° |
| 2026-04-23 16:19 | 47.87176 | 9.20382 | 7981 ft | 152 kts | 132° |
| 2026-04-23 16:20 | 47.86430 | 9.21456 | 7865 ft | 148 kts | 131° |
| 2026-04-23 16:20 | 47.85704 | 9.22491 | 7754 ft | 146 kts | 136° |
| 2026-04-23 16:20 | 47.84752 | 9.23082 | 7621 ft | 155 kts | 165° |
| 2026-04-23 16:20 | 47.83688 | 9.23438 | 7476 ft | 158 kts | 162° |
| 2026-04-23 16:21 | 47.82615 | 9.23864 | 7343 ft | 161 kts | 162° |
| 2026-04-23 16:21 | 47.81529 | 9.24309 | 7150 ft | 163 kts | 161° |
| 2026-04-23 16:21 | 47.80430 | 9.24764 | 6938 ft | 164 kts | 161° |
| 2026-04-23 16:21 | 47.79327 | 9.25222 | 6729 ft | 164 kts | 161° |
| 2026-04-23 16:22 | 47.78220 | 9.25675 | 6492 ft | 166 kts | 161° |
| 2026-04-23 16:22 | 47.77114 | 9.26131 | 6254 ft | 165 kts | 161° |
| 2026-04-23 16:22 | 47.75997 | 9.26587 | 5995 ft | 166 kts | 161° |
| 2026-04-23 16:22 | 47.74883 | 9.27049 | 5740 ft | 167 kts | 161° |
| 2026-04-23 16:23 | 47.73764 | 9.27512 | 5494 ft | 166 kts | 161° |
| 2026-04-23 16:23 | 47.72655 | 9.27966 | 5247 ft | 165 kts | 161° |
| 2026-04-23 16:23 | 47.71546 | 9.28422 | 5006 ft | 166 kts | 161° |
| 2026-04-23 16:23 | 47.70453 | 9.28867 | 4743 ft | 160 kts | 162° |
| 2026-04-23 16:24 | 47.69391 | 9.29305 | 4493 ft | 158 kts | 160° |
| 2026-04-23 16:24 | 47.68331 | 9.29743 | 4235 ft | 159 kts | 160° |
| 2026-04-23 16:24 | 47.67266 | 9.30178 | 3993 ft | 158 kts | 160° |
| 2026-04-23 16:24 | 47.66228 | 9.30600 | 3983 ft | 154 kts | 161° |
| 2026-04-23 16:25 | 47.65196 | 9.31024 | 3985 ft | 154 kts | 161° |
| 2026-04-23 16:25 | 47.64164 | 9.31449 | 3984 ft | 153 kts | 160° |
| 2026-04-23 16:25 | 47.63131 | 9.31871 | 3984 ft | 154 kts | 161° |
| 2026-04-23 16:25 | 47.62140 | 9.32436 | 3819 ft | 157 kts | 140° |
| 2026-04-23 16:26 | 47.61445 | 9.33664 | 3597 ft | 156 kts | 112° |
| 2026-04-23 16:26 | 47.61189 | 9.35199 | 3381 ft | 154 kts | 88° |
| 2026-04-23 16:26 | 47.61400 | 9.36674 | 3151 ft | 140 kts | 63° |
| 2026-04-23 16:26 | 47.62006 | 9.37724 | 2968 ft | 129 kts | 34° |
| 2026-04-23 16:27 | 47.62677 | 9.38457 | 2960 ft | 116 kts | 58° |
| 2026-04-23 16:27 | 47.62835 | 9.39603 | 2963 ft | 112 kts | 74° |
| 2026-04-23 16:27 | 47.63161 | 9.40651 | 2858 ft | 113 kts | 62° |
| 2026-04-23 16:27 | 47.63498 | 9.41650 | 2718 ft | 106 kts | 60° |
| 2026-04-23 16:28 | 47.63844 | 9.42603 | 2564 ft | 105 kts | 59° |
| 2026-04-23 16:28 | 47.64195 | 9.43545 | 2415 ft | 103 kts | 57° |
| 2026-04-23 16:28 | 47.64543 | 9.44466 | 2264 ft | 103 kts | 58° |
| 2026-04-23 16:28 | 47.64896 | 9.45392 | 2131 ft | 95 kts | 57° |
| 2026-04-23 16:29 | 47.65187 | 9.46131 | 1997 ft | 79 kts | 58° |
| 2026-04-23 16:29 | 47.65454 | 9.46827 | 1887 ft | 74 kts | 53° |
| 2026-04-23 16:29 | 47.65715 | 9.47477 | 1762 ft | 75 kts | 56° |
| 2026-04-23 16:29 | 47.65977 | 9.48164 | 1668 ft | 77 kts | 59° |
| 2026-04-23 16:30 | 47.66222 | 9.48845 | 1592 ft | 73 kts | 53° |
| 2026-04-23 16:30 | 47.66488 | 9.49485 | 1525 ft | 74 kts | 55° |
| 2026-04-23 16:30 | 47.66751 | 9.50153 | 1413 ft | 73 kts | 56° |
| 2026-04-23 16:30 | 47.66977 | 9.50744 | 1374 ft | 50 kts | 62° |
| 2026-04-23 16:31 | 47.67123 | 9.51126 | 1374 ft | 35 kts | 58° |
| 2026-04-23 16:31 | 47.67123 | 9.51239 | 1376 ft | 5 kts | 131° |
| 2026-04-23 16:31 | 47.67082 | 9.51290 | 1375 ft | 13 kts | 139° |
| 2026-04-23 16:31 | 47.67036 | 9.51362 | 1373 ft | 5 kts | 61° |
| 2026-04-23 16:32 | 47.67068 | 9.51454 | 1373 ft | 16 kts | 62° |
| 2026-04-23 16:32 | 47.67139 | 9.51638 | 1373 ft | 21 kts | 63° |
| 2026-04-23 16:32 | 47.67193 | 9.51780 | 1372 ft | 13 kts | 63° |
| 2026-04-23 16:32 | 47.67251 | 9.51930 | 1366 ft | 17 kts | 58° |
| 2026-04-23 16:33 | 47.67293 | 9.52038 | 1366 ft | 7 kts | 60° |
| 2026-04-23 16:33 | 47.67311 | 9.52095 | 1366 ft | 6 kts | 108° |
| 2026-04-23 16:33 | 47.67278 | 9.52127 | 1367 ft | 0 kts | 152° |